sensor_id;sensor_type;location;lat;lon;timestamp;P1;durP1;ratioP1;P2;durP2;ratioP2
64061;SDS011;50308;47.438;-1.528;2023-05-01T00:00:16;9.73;;;5.47;;
64061;SDS011;50308;47.438;-1.528;2023-05-01T00:02:42;10.98;;;6.00;;
64061;SDS011;50308;47.438;-1.528;2023-05-01T00:05:08;8.73;;;5.82;;
64061;SDS011;50308;47.438;-1.528;2023-05-01T00:07:33;9.50;;;5.60;;
64061;SDS011;50308;47.438;-1.528;2023-05-01T00:09:59;9.98;;;5.53;;
64061;SDS011;50308;47.438;-1.528;2023-05-01T00:12:25;9.65;;;5.63;;
64061;SDS011;50308;47.438;-1.528;2023-05-01T00:14:52;11.30;;;5.85;;
64061;SDS011;50308;47.438;-1.528;2023-05-01T00:17:18;15.43;;;6.40;;
64061;SDS011;50308;47.438;-1.528;2023-05-01T00:19:44;13.88;;;6.13;;
64061;SDS011;50308;47.438;-1.528;2023-05-01T00:22:10;10.65;;;5.32;;
64061;SDS011;50308;47.438;-1.528;2023-05-01T00:24:35;10.02;;;6.35;;
64061;SDS011;50308;47.438;-1.528;2023-05-01T00:27:01;9.20;;;5.68;;
64061;SDS011;50308;47.438;-1.528;2023-05-01T00:29:27;12.43;;;5.80;;
64061;SDS011;50308;47.438;-1.528;2023-05-01T00:31:53;11.20;;;5.65;;
64061;SDS011;50308;47.438;-1.528;2023-05-01T00:34:19;10.55;;;5.70;;
64061;SDS011;50308;47.438;-1.528;2023-05-01T00:36:45;11.18;;;5.93;;
64061;SDS011;50308;47.438;-1.528;2023-05-01T00:39:11;11.80;;;6.05;;
64061;SDS011;50308;47.438;-1.528;2023-05-01T00:41:37;11.93;;;6.50;;
64061;SDS011;50308;47.438;-1.528;2023-05-01T00:44:02;12.25;;;6.20;;
64061;SDS011;50308;47.438;-1.528;2023-05-01T00:46:28;12.95;;;6.55;;
64061;SDS011;50308;47.438;-1.528;2023-05-01T00:48:56;12.07;;;5.68;;
64061;SDS011;50308;47.438;-1.528;2023-05-01T00:51:22;12.48;;;6.57;;
64061;SDS011;50308;47.438;-1.528;2023-05-01T00:53:49;10.13;;;5.97;;
64061;SDS011;50308;47.438;-1.528;2023-05-01T00:56:15;9.52;;;5.60;;
64061;SDS011;50308;47.438;-1.528;2023-05-01T00:58:42;11.38;;;6.00;;
64061;SDS011;50308;47.438;-1.528;2023-05-01T01:01:11;11.35;;;5.97;;
64061;SDS011;50308;47.438;-1.528;2023-05-01T01:03:37;13.75;;;6.72;;
64061;SDS011;50308;47.438;-1.528;2023-05-01T01:11:32;9.52;;;5.50;;
64061;SDS011;50308;47.438;-1.528;2023-05-01T01:14:09;12.73;;;6.70;;
64061;SDS011;50308;47.438;-1.528;2023-05-01T01:19:33;11.18;;;6.03;;
64061;SDS011;50308;47.438;-1.528;2023-05-01T01:22:28;13.05;;;6.97;;
64061;SDS011;50308;47.438;-1.528;2023-05-01T01:28:04;16.30;;;6.72;;
64061;SDS011;50308;47.438;-1.528;2023-05-01T01:36:10;16.20;;;7.63;;
64061;SDS011;50308;47.438;-1.528;2023-05-01T01:38:44;13.77;;;6.60;;
64061;SDS011;50308;47.438;-1.528;2023-05-01T01:43:46;12.77;;;5.82;;
64061;SDS011;50308;47.438;-1.528;2023-05-01T01:46:19;18.02;;;6.97;;
64061;SDS011;50308;47.438;-1.528;2023-05-01T01:48:48;12.57;;;6.82;;
64061;SDS011;50308;47.438;-1.528;2023-05-01T01:51:17;11.68;;;7.20;;
64061;SDS011;50308;47.438;-1.528;2023-05-01T01:53:45;11.27;;;6.40;;
64061;SDS011;50308;47.438;-1.528;2023-05-01T01:56:16;13.18;;;6.72;;
64061;SDS011;50308;47.438;-1.528;2023-05-01T01:58:44;11.45;;;6.07;;
64061;SDS011;50308;47.438;-1.528;2023-05-01T02:01:11;11.15;;;6.53;;
64061;SDS011;50308;47.438;-1.528;2023-05-01T02:03:38;13.38;;;7.10;;
64061;SDS011;50308;47.438;-1.528;2023-05-01T02:06:05;12.52;;;7.05;;
64061;SDS011;50308;47.438;-1.528;2023-05-01T02:08:32;12.35;;;6.85;;
64061;SDS011;50308;47.438;-1.528;2023-05-01T02:11:00;14.70;;;6.47;;
64061;SDS011;50308;47.438;-1.528;2023-05-01T02:13:28;12.05;;;6.28;;
64061;SDS011;50308;47.438;-1.528;2023-05-01T02:15:57;12.65;;;6.88;;
64061;SDS011;50308;47.438;-1.528;2023-05-01T02:18:41;11.75;;;6.30;;
64061;SDS011;50308;47.438;-1.528;2023-05-01T02:21:09;13.38;;;6.80;;
64061;SDS011;50308;47.438;-1.528;2023-05-01T02:23:37;14.23;;;6.65;;
64061;SDS011;50308;47.438;-1.528;2023-05-01T02:26:03;11.77;;;6.60;;
64061;SDS011;50308;47.438;-1.528;2023-05-01T02:28:31;12.48;;;6.68;;
64061;SDS011;50308;47.438;-1.528;2023-05-01T02:30:58;9.70;;;6.03;;
64061;SDS011;50308;47.438;-1.528;2023-05-01T02:33:24;12.00;;;6.78;;
64061;SDS011;50308;47.438;-1.528;2023-05-01T02:35:50;10.85;;;6.20;;
64061;SDS011;50308;47.438;-1.528;2023-05-01T02:38:16;13.65;;;5.85;;
64061;SDS011;50308;47.438;-1.528;2023-05-01T02:40:43;11.27;;;6.18;;
64061;SDS011;50308;47.438;-1.528;2023-05-01T02:43:14;11.32;;;6.28;;
64061;SDS011;50308;47.438;-1.528;2023-05-01T02:48:12;12.88;;;6.80;;
64061;SDS011;50308;47.438;-1.528;2023-05-01T02:50:41;15.07;;;6.03;;
64061;SDS011;50308;47.438;-1.528;2023-05-01T02:53:08;9.95;;;5.32;;
64061;SDS011;50308;47.438;-1.528;2023-05-01T02:55:39;11.35;;;6.05;;
64061;SDS011;50308;47.438;-1.528;2023-05-01T02:58:06;10.27;;;5.60;;
64061;SDS011;50308;47.438;-1.528;2023-05-01T03:00:32;12.13;;;6.82;;
64061;SDS011;50308;47.438;-1.528;2023-05-01T03:02:59;10.90;;;5.43;;
64061;SDS011;50308;47.438;-1.528;2023-05-01T03:05:25;10.43;;;5.40;;
64061;SDS011;50308;47.438;-1.528;2023-05-01T03:07:50;12.07;;;6.10;;
64061;SDS011;50308;47.438;-1.528;2023-05-01T03:10:16;12.00;;;6.03;;
64061;SDS011;50308;47.438;-1.528;2023-05-01T03:12:42;11.98;;;6.15;;
64061;SDS011;50308;47.438;-1.528;2023-05-01T03:15:08;10.27;;;5.57;;
64061;SDS011;50308;47.438;-1.528;2023-05-01T03:17:36;10.68;;;5.90;;
64061;SDS011;50308;47.438;-1.528;2023-05-01T03:20:02;13.13;;;5.43;;
64061;SDS011;50308;47.438;-1.528;2023-05-01T03:22:30;10.75;;;5.43;;
64061;SDS011;50308;47.438;-1.528;2023-05-01T03:24:57;12.20;;;5.60;;
64061;SDS011;50308;47.438;-1.528;2023-05-01T03:27:23;12.23;;;6.10;;
64061;SDS011;50308;47.438;-1.528;2023-05-01T03:29:49;11.93;;;5.97;;
64061;SDS011;50308;47.438;-1.528;2023-05-01T03:32:22;10.55;;;5.70;;
64061;SDS011;50308;47.438;-1.528;2023-05-01T03:34:48;11.23;;;5.10;;
64061;SDS011;50308;47.438;-1.528;2023-05-01T03:37:13;8.45;;;4.78;;
64061;SDS011;50308;47.438;-1.528;2023-05-01T03:39:39;9.98;;;5.20;;
64061;SDS011;50308;47.438;-1.528;2023-05-01T03:42:05;7.47;;;4.43;;
64061;SDS011;50308;47.438;-1.528;2023-05-01T03:44:31;9.80;;;4.95;;
64061;SDS011;50308;47.438;-1.528;2023-05-01T03:46:57;10.50;;;5.90;;
64061;SDS011;50308;47.438;-1.528;2023-05-01T03:49:23;12.52;;;5.72;;
64061;SDS011;50308;47.438;-1.528;2023-05-01T03:51:48;9.23;;;5.05;;
64061;SDS011;50308;47.438;-1.528;2023-05-01T03:54:14;11.02;;;5.22;;
64061;SDS011;50308;47.438;-1.528;2023-05-01T03:56:40;8.02;;;4.60;;
64061;SDS011;50308;47.438;-1.528;2023-05-01T03:59:05;10.02;;;5.20;;
64061;SDS011;50308;47.438;-1.528;2023-05-01T04:01:31;9.80;;;5.25;;
64061;SDS011;50308;47.438;-1.528;2023-05-01T04:03:57;9.30;;;4.90;;
64061;SDS011;50308;47.438;-1.528;2023-05-01T04:06:23;13.15;;;5.28;;
64061;SDS011;50308;47.438;-1.528;2023-05-01T04:08:50;10.18;;;5.20;;
64061;SDS011;50308;47.438;-1.528;2023-05-01T04:11:15;7.88;;;5.05;;
64061;SDS011;50308;47.438;-1.528;2023-05-01T04:13:44;10.55;;;5.30;;
64061;SDS011;50308;47.438;-1.528;2023-05-01T04:16:10;10.15;;;5.10;;
64061;SDS011;50308;47.438;-1.528;2023-05-01T04:18:36;9.90;;;5.00;;
64061;SDS011;50308;47.438;-1.528;2023-05-01T04:21:01;8.15;;;4.90;;
64061;SDS011;50308;47.438;-1.528;2023-05-01T04:23:27;9.95;;;4.38;;
64061;SDS011;50308;47.438;-1.528;2023-05-01T04:25:56;8.68;;;4.65;;
64061;SDS011;50308;47.438;-1.528;2023-05-01T04:28:22;10.90;;;5.15;;
64061;SDS011;50308;47.438;-1.528;2023-05-01T04:30:48;8.60;;;4.43;;
64061;SDS011;50308;47.438;-1.528;2023-05-01T04:33:13;10.05;;;4.28;;
64061;SDS011;50308;47.438;-1.528;2023-05-01T04:35:39;9.38;;;4.75;;
64061;SDS011;50308;47.438;-1.528;2023-05-01T04:38:06;10.57;;;5.28;;
64061;SDS011;50308;47.438;-1.528;2023-05-01T04:40:33;7.57;;;4.75;;
64061;SDS011;50308;47.438;-1.528;2023-05-01T04:42:59;9.77;;;4.63;;
64061;SDS011;50308;47.438;-1.528;2023-05-01T04:45:25;11.10;;;4.63;;
64061;SDS011;50308;47.438;-1.528;2023-05-01T04:47:51;8.80;;;4.72;;
64061;SDS011;50308;47.438;-1.528;2023-05-01T04:50:16;8.23;;;4.03;;
64061;SDS011;50308;47.438;-1.528;2023-05-01T04:52:42;9.95;;;4.60;;
64061;SDS011;50308;47.438;-1.528;2023-05-01T04:55:08;7.95;;;3.97;;
64061;SDS011;50308;47.438;-1.528;2023-05-01T04:57:34;7.72;;;4.18;;
64061;SDS011;50308;47.438;-1.528;2023-05-01T05:00:00;10.25;;;4.47;;
64061;SDS011;50308;47.438;-1.528;2023-05-01T05:02:27;9.05;;;4.35;;
64061;SDS011;50308;47.438;-1.528;2023-05-01T05:04:52;9.70;;;4.80;;
64061;SDS011;50308;47.438;-1.528;2023-05-01T05:07:18;8.38;;;5.05;;
64061;SDS011;50308;47.438;-1.528;2023-05-01T05:09:45;9.10;;;4.70;;
64061;SDS011;50308;47.438;-1.528;2023-05-01T05:12:10;10.48;;;4.65;;
64061;SDS011;50308;47.438;-1.528;2023-05-01T05:14:38;8.32;;;4.32;;
64061;SDS011;50308;47.438;-1.528;2023-05-01T05:17:04;9.77;;;4.88;;
64061;SDS011;50308;47.438;-1.528;2023-05-01T05:19:30;7.65;;;4.40;;
64061;SDS011;50308;47.438;-1.528;2023-05-01T05:21:56;9.05;;;4.88;;
64061;SDS011;50308;47.438;-1.528;2023-05-01T05:24:22;10.40;;;5.03;;
64061;SDS011;50308;47.438;-1.528;2023-05-01T05:26:48;8.88;;;4.80;;
64061;SDS011;50308;47.438;-1.528;2023-05-01T05:29:14;10.27;;;5.43;;
64061;SDS011;50308;47.438;-1.528;2023-05-01T05:31:40;11.32;;;4.95;;
64061;SDS011;50308;47.438;-1.528;2023-05-01T05:34:06;10.35;;;4.95;;
64061;SDS011;50308;47.438;-1.528;2023-05-01T05:36:32;9.88;;;4.60;;
64061;SDS011;50308;47.438;-1.528;2023-05-01T05:38:58;11.50;;;5.35;;
64061;SDS011;50308;47.438;-1.528;2023-05-01T05:41:24;8.18;;;4.40;;
64061;SDS011;50308;47.438;-1.528;2023-05-01T05:43:51;11.43;;;6.15;;
64061;SDS011;50308;47.438;-1.528;2023-05-01T05:46:18;12.15;;;5.25;;
64061;SDS011;50308;47.438;-1.528;2023-05-01T05:48:44;9.00;;;4.03;;
64061;SDS011;50308;47.438;-1.528;2023-05-01T05:51:10;10.50;;;5.15;;
64061;SDS011;50308;47.438;-1.528;2023-05-01T05:53:36;11.90;;;5.47;;
64061;SDS011;50308;47.438;-1.528;2023-05-01T05:56:01;11.75;;;4.68;;
64061;SDS011;50308;47.438;-1.528;2023-05-01T05:58:27;8.80;;;4.63;;
64061;SDS011;50308;47.438;-1.528;2023-05-01T06:00:53;10.35;;;4.40;;
64061;SDS011;50308;47.438;-1.528;2023-05-01T06:03:20;10.70;;;5.35;;
64061;SDS011;50308;47.438;-1.528;2023-05-01T06:05:46;9.15;;;5.15;;
64061;SDS011;50308;47.438;-1.528;2023-05-01T06:08:12;10.82;;;4.93;;
64061;SDS011;50308;47.438;-1.528;2023-05-01T06:10:38;9.82;;;5.43;;
64061;SDS011;50308;47.438;-1.528;2023-05-01T06:13:07;11.02;;;5.30;;
64061;SDS011;50308;47.438;-1.528;2023-05-01T06:15:34;9.90;;;5.25;;
64061;SDS011;50308;47.438;-1.528;2023-05-01T06:18:03;11.75;;;5.22;;
64061;SDS011;50308;47.438;-1.528;2023-05-01T06:20:29;8.90;;;4.90;;
64061;SDS011;50308;47.438;-1.528;2023-05-01T06:22:55;10.23;;;5.07;;
64061;SDS011;50308;47.438;-1.528;2023-05-01T06:25:21;8.40;;;4.10;;
64061;SDS011;50308;47.438;-1.528;2023-05-01T06:27:48;12.18;;;5.70;;
64061;SDS011;50308;47.438;-1.528;2023-05-01T06:30:16;11.35;;;5.38;;
64061;SDS011;50308;47.438;-1.528;2023-05-01T06:32:44;9.88;;;5.07;;
64061;SDS011;50308;47.438;-1.528;2023-05-01T06:35:10;12.85;;;5.25;;
64061;SDS011;50308;47.438;-1.528;2023-05-01T06:37:37;10.77;;;5.10;;
64061;SDS011;50308;47.438;-1.528;2023-05-01T06:40:03;9.77;;;4.82;;
64061;SDS011;50308;47.438;-1.528;2023-05-01T06:42:30;11.93;;;5.65;;
64061;SDS011;50308;47.438;-1.528;2023-05-01T06:44:56;10.23;;;5.22;;
64061;SDS011;50308;47.438;-1.528;2023-05-01T06:47:21;9.68;;;4.93;;
64061;SDS011;50308;47.438;-1.528;2023-05-01T06:49:47;12.88;;;5.55;;
64061;SDS011;50308;47.438;-1.528;2023-05-01T06:52:13;11.40;;;5.72;;
64061;SDS011;50308;47.438;-1.528;2023-05-01T06:54:38;10.45;;;5.13;;
64061;SDS011;50308;47.438;-1.528;2023-05-01T06:57:04;11.00;;;5.43;;
64061;SDS011;50308;47.438;-1.528;2023-05-01T06:59:30;11.38;;;5.35;;
64061;SDS011;50308;47.438;-1.528;2023-05-01T07:01:55;9.52;;;4.47;;
64061;SDS011;50308;47.438;-1.528;2023-05-01T07:04:21;10.00;;;4.25;;
64061;SDS011;50308;47.438;-1.528;2023-05-01T07:06:47;10.63;;;5.18;;
64061;SDS011;50308;47.438;-1.528;2023-05-01T07:09:13;14.40;;;4.70;;
64061;SDS011;50308;47.438;-1.528;2023-05-01T07:11:39;10.18;;;5.03;;
64061;SDS011;50308;47.438;-1.528;2023-05-01T07:14:06;11.95;;;4.63;;
64061;SDS011;50308;47.438;-1.528;2023-05-01T07:16:32;9.00;;;4.57;;
64061;SDS011;50308;47.438;-1.528;2023-05-01T07:18:58;9.88;;;5.13;;
64061;SDS011;50308;47.438;-1.528;2023-05-01T07:21:24;9.50;;;4.78;;
64061;SDS011;50308;47.438;-1.528;2023-05-01T07:23:50;7.78;;;4.38;;
64061;SDS011;50308;47.438;-1.528;2023-05-01T07:26:16;11.00;;;4.95;;
64061;SDS011;50308;47.438;-1.528;2023-05-01T07:28:42;9.32;;;4.35;;
64061;SDS011;50308;47.438;-1.528;2023-05-01T07:31:08;12.73;;;4.57;;
64061;SDS011;50308;47.438;-1.528;2023-05-01T07:33:34;11.02;;;5.25;;
64061;SDS011;50308;47.438;-1.528;2023-05-01T07:36:00;8.45;;;4.63;;
64061;SDS011;50308;47.438;-1.528;2023-05-01T07:38:26;10.98;;;4.60;;
64061;SDS011;50308;47.438;-1.528;2023-05-01T07:40:52;9.05;;;4.30;;
64061;SDS011;50308;47.438;-1.528;2023-05-01T07:43:17;10.25;;;4.65;;
64061;SDS011;50308;47.438;-1.528;2023-05-01T07:45:52;9.07;;;4.30;;
64061;SDS011;50308;47.438;-1.528;2023-05-01T07:48:23;9.85;;;4.93;;
64061;SDS011;50308;47.438;-1.528;2023-05-01T07:50:49;10.20;;;4.32;;
64061;SDS011;50308;47.438;-1.528;2023-05-01T07:53:15;8.68;;;4.95;;
64061;SDS011;50308;47.438;-1.528;2023-05-01T07:55:40;12.73;;;5.20;;
64061;SDS011;50308;47.438;-1.528;2023-05-01T07:58:06;10.05;;;4.32;;
64061;SDS011;50308;47.438;-1.528;2023-05-01T08:00:32;9.70;;;4.85;;
64061;SDS011;50308;47.438;-1.528;2023-05-01T08:02:58;10.52;;;4.05;;
64061;SDS011;50308;47.438;-1.528;2023-05-01T08:05:24;10.55;;;3.95;;
64061;SDS011;50308;47.438;-1.528;2023-05-01T08:07:50;11.02;;;4.22;;
64061;SDS011;50308;47.438;-1.528;2023-05-01T08:10:15;8.40;;;4.28;;
64061;SDS011;50308;47.438;-1.528;2023-05-01T08:12:41;10.63;;;4.70;;
64061;SDS011;50308;47.438;-1.528;2023-05-01T08:15:07;10.98;;;4.93;;
64061;SDS011;50308;47.438;-1.528;2023-05-01T08:17:36;14.77;;;4.95;;
64061;SDS011;50308;47.438;-1.528;2023-05-01T08:20:02;10.30;;;4.63;;
64061;SDS011;50308;47.438;-1.528;2023-05-01T08:22:28;11.02;;;4.45;;
64061;SDS011;50308;47.438;-1.528;2023-05-01T08:24:55;11.73;;;4.60;;
64061;SDS011;50308;47.438;-1.528;2023-05-01T08:27:21;9.05;;;3.95;;
64061;SDS011;50308;47.438;-1.528;2023-05-01T08:29:46;9.77;;;3.80;;
64061;SDS011;50308;47.438;-1.528;2023-05-01T08:32:13;11.77;;;4.20;;
64061;SDS011;50308;47.438;-1.528;2023-05-01T08:34:39;10.82;;;4.05;;
64061;SDS011;50308;47.438;-1.528;2023-05-01T08:37:05;12.23;;;4.03;;
64061;SDS011;50308;47.438;-1.528;2023-05-01T08:39:31;6.18;;;3.40;;
64061;SDS011;50308;47.438;-1.528;2023-05-01T08:41:57;9.57;;;3.25;;
64061;SDS011;50308;47.438;-1.528;2023-05-01T08:44:24;6.75;;;3.72;;
64061;SDS011;50308;47.438;-1.528;2023-05-01T08:49:39;5.55;;;2.53;;
64061;SDS011;50308;47.438;-1.528;2023-05-01T08:52:06;8.45;;;2.75;;
64061;SDS011;50308;47.438;-1.528;2023-05-01T08:54:33;9.50;;;3.28;;
64061;SDS011;50308;47.438;-1.528;2023-05-01T08:57:01;7.05;;;2.70;;
64061;SDS011;50308;47.438;-1.528;2023-05-01T08:59:41;9.00;;;2.78;;
64061;SDS011;50308;47.438;-1.528;2023-05-01T09:02:08;7.55;;;3.30;;
64061;SDS011;50308;47.438;-1.528;2023-05-01T09:04:36;5.38;;;2.80;;
64061;SDS011;50308;47.438;-1.528;2023-05-01T09:07:03;7.00;;;2.83;;
64061;SDS011;50308;47.438;-1.528;2023-05-01T09:09:29;6.57;;;2.90;;
64061;SDS011;50308;47.438;-1.528;2023-05-01T09:12:38;5.45;;;2.63;;
64061;SDS011;50308;47.438;-1.528;2023-05-01T09:14:51;6.63;;;2.67;;
64061;SDS011;50308;47.438;-1.528;2023-05-01T09:17:19;6.00;;;2.53;;
64061;SDS011;50308;47.438;-1.528;2023-05-01T09:19:46;7.82;;;2.58;;
64061;SDS011;50308;47.438;-1.528;2023-05-01T09:22:14;11.07;;;2.75;;
64061;SDS011;50308;47.438;-1.528;2023-05-01T09:24:42;6.32;;;2.72;;
64061;SDS011;50308;47.438;-1.528;2023-05-01T09:27:08;7.60;;;2.78;;
64061;SDS011;50308;47.438;-1.528;2023-05-01T09:29:41;8.50;;;2.75;;
64061;SDS011;50308;47.438;-1.528;2023-05-01T09:34:44;5.82;;;2.70;;
64061;SDS011;50308;47.438;-1.528;2023-05-01T09:37:30;7.05;;;3.35;;
64061;SDS011;50308;47.438;-1.528;2023-05-01T09:40:01;5.22;;;2.72;;
64061;SDS011;50308;47.438;-1.528;2023-05-01T09:42:37;6.38;;;2.63;;
64061;SDS011;50308;47.438;-1.528;2023-05-01T09:45:05;4.97;;;2.67;;
64061;SDS011;50308;47.438;-1.528;2023-05-01T09:47:41;8.88;;;3.40;;
64061;SDS011;50308;47.438;-1.528;2023-05-01T09:50:29;10.93;;;3.45;;
64061;SDS011;50308;47.438;-1.528;2023-05-01T09:52:57;8.05;;;2.88;;
64061;SDS011;50308;47.438;-1.528;2023-05-01T09:55:25;11.98;;;2.55;;
64061;SDS011;50308;47.438;-1.528;2023-05-01T09:57:50;5.57;;;3.00;;
64061;SDS011;50308;47.438;-1.528;2023-05-01T10:00:17;7.88;;;2.75;;
64061;SDS011;50308;47.438;-1.528;2023-05-01T10:02:45;5.60;;;2.55;;
64061;SDS011;50308;47.438;-1.528;2023-05-01T10:05:12;6.00;;;2.40;;
64061;SDS011;50308;47.438;-1.528;2023-05-01T10:07:39;5.65;;;2.50;;
64061;SDS011;50308;47.438;-1.528;2023-05-01T10:10:27;3.88;;;2.03;;
64061;SDS011;50308;47.438;-1.528;2023-05-01T10:12:53;5.35;;;2.67;;
64061;SDS011;50308;47.438;-1.528;2023-05-01T10:15:19;4.50;;;2.63;;
64061;SDS011;50308;47.438;-1.528;2023-05-01T10:17:46;8.20;;;3.15;;
64061;SDS011;50308;47.438;-1.528;2023-05-01T10:22:41;5.80;;;2.38;;
64061;SDS011;50308;47.438;-1.528;2023-05-01T10:25:08;6.05;;;2.92;;
64061;SDS011;50308;47.438;-1.528;2023-05-01T10:27:38;5.05;;;2.10;;
64061;SDS011;50308;47.438;-1.528;2023-05-01T10:30:05;4.55;;;2.40;;
64061;SDS011;50308;47.438;-1.528;2023-05-01T10:32:32;5.00;;;2.53;;
64061;SDS011;50308;47.438;-1.528;2023-05-01T10:35:00;7.20;;;3.47;;
64061;SDS011;50308;47.438;-1.528;2023-05-01T10:37:55;7.85;;;2.50;;
64061;SDS011;50308;47.438;-1.528;2023-05-01T10:48:54;5.78;;;2.80;;
64061;SDS011;50308;47.438;-1.528;2023-05-01T10:51:21;5.30;;;2.28;;
64061;SDS011;50308;47.438;-1.528;2023-05-01T10:56:45;8.57;;;2.45;;
64061;SDS011;50308;47.438;-1.528;2023-05-01T10:59:13;5.57;;;2.70;;
64061;SDS011;50308;47.438;-1.528;2023-05-01T11:01:42;5.35;;;2.38;;
64061;SDS011;50308;47.438;-1.528;2023-05-01T11:15:27;6.45;;;2.65;;
64061;SDS011;50308;47.438;-1.528;2023-05-01T11:18:00;5.10;;;2.05;;
64061;SDS011;50308;47.438;-1.528;2023-05-01T11:23:02;7.25;;;2.67;;
64061;SDS011;50308;47.438;-1.528;2023-05-01T11:25:29;6.00;;;2.60;;
64061;SDS011;50308;47.438;-1.528;2023-05-01T11:27:58;4.80;;;2.30;;
64061;SDS011;50308;47.438;-1.528;2023-05-01T11:30:40;7.00;;;2.40;;
64061;SDS011;50308;47.438;-1.528;2023-05-01T11:33:07;7.83;;;2.47;;
64061;SDS011;50308;47.438;-1.528;2023-05-01T11:35:34;7.35;;;1.92;;
64061;SDS011;50308;47.438;-1.528;2023-05-01T11:38:03;5.38;;;2.35;;
64061;SDS011;50308;47.438;-1.528;2023-05-01T11:40:31;6.78;;;2.38;;
64061;SDS011;50308;47.438;-1.528;2023-05-01T11:43:03;4.32;;;2.03;;
64061;SDS011;50308;47.438;-1.528;2023-05-01T11:45:32;5.93;;;2.47;;
64061;SDS011;50308;47.438;-1.528;2023-05-01T11:48:00;6.20;;;2.50;;
64061;SDS011;50308;47.438;-1.528;2023-05-01T11:50:32;6.50;;;2.40;;
64061;SDS011;50308;47.438;-1.528;2023-05-01T11:53:02;3.95;;;2.53;;
64061;SDS011;50308;47.438;-1.528;2023-05-01T11:55:36;6.30;;;2.70;;
64061;SDS011;50308;47.438;-1.528;2023-05-01T11:58:04;4.97;;;2.08;;
64061;SDS011;50308;47.438;-1.528;2023-05-01T12:00:33;5.57;;;2.50;;
64061;SDS011;50308;47.438;-1.528;2023-05-01T12:03:07;5.03;;;2.08;;
64061;SDS011;50308;47.438;-1.528;2023-05-01T12:05:37;3.88;;;2.13;;
64061;SDS011;50308;47.438;-1.528;2023-05-01T12:08:08;6.78;;;2.30;;
64061;SDS011;50308;47.438;-1.528;2023-05-01T12:10:42;7.43;;;2.30;;
64061;SDS011;50308;47.438;-1.528;2023-05-01T12:13:11;7.13;;;2.33;;
64061;SDS011;50308;47.438;-1.528;2023-05-01T12:16:01;5.65;;;2.33;;
64061;SDS011;50308;47.438;-1.528;2023-05-01T12:18:28;5.90;;;2.17;;
64061;SDS011;50308;47.438;-1.528;2023-05-01T12:20:55;4.13;;;2.13;;
64061;SDS011;50308;47.438;-1.528;2023-05-01T12:23:34;4.93;;;2.45;;
64061;SDS011;50308;47.438;-1.528;2023-05-01T12:26:14;7.55;;;2.17;;
64061;SDS011;50308;47.438;-1.528;2023-05-01T12:31:22;6.35;;;2.17;;
64061;SDS011;50308;47.438;-1.528;2023-05-01T12:36:31;5.15;;;2.00;;
64061;SDS011;50308;47.438;-1.528;2023-05-01T12:44:16;4.72;;;2.05;;
64061;SDS011;50308;47.438;-1.528;2023-05-01T12:46:45;6.20;;;2.10;;
64061;SDS011;50308;47.438;-1.528;2023-05-01T12:49:18;5.00;;;2.00;;
64061;SDS011;50308;47.438;-1.528;2023-05-01T12:51:48;4.35;;;2.03;;
64061;SDS011;50308;47.438;-1.528;2023-05-01T12:54:18;6.38;;;2.00;;
64061;SDS011;50308;47.438;-1.528;2023-05-01T12:56:50;5.38;;;2.00;;
64061;SDS011;50308;47.438;-1.528;2023-05-01T12:59:19;6.65;;;2.72;;
64061;SDS011;50308;47.438;-1.528;2023-05-01T13:01:59;5.30;;;2.15;;
64061;SDS011;50308;47.438;-1.528;2023-05-01T13:04:43;6.28;;;2.38;;
64061;SDS011;50308;47.438;-1.528;2023-05-01T13:07:17;4.35;;;2.50;;
64061;SDS011;50308;47.438;-1.528;2023-05-01T13:09:57;5.35;;;2.33;;
64061;SDS011;50308;47.438;-1.528;2023-05-01T13:12:47;6.10;;;2.38;;
64061;SDS011;50308;47.438;-1.528;2023-05-01T13:15:19;4.68;;;2.17;;
64061;SDS011;50308;47.438;-1.528;2023-05-01T13:17:47;5.40;;;2.28;;
64061;SDS011;50308;47.438;-1.528;2023-05-01T13:20:21;4.50;;;1.85;;
64061;SDS011;50308;47.438;-1.528;2023-05-01T13:22:52;11.02;;;5.00;;
64061;SDS011;50308;47.438;-1.528;2023-05-01T13:25:19;5.22;;;2.45;;
64061;SDS011;50308;47.438;-1.528;2023-05-01T13:27:51;4.82;;;2.47;;
64061;SDS011;50308;47.438;-1.528;2023-05-01T13:30:30;6.82;;;2.38;;
64061;SDS011;50308;47.438;-1.528;2023-05-01T13:33:00;7.63;;;2.42;;
64061;SDS011;50308;47.438;-1.528;2023-05-01T13:35:30;7.38;;;2.30;;
64061;SDS011;50308;47.438;-1.528;2023-05-01T13:37:58;4.82;;;2.53;;
64061;SDS011;50308;47.438;-1.528;2023-05-01T13:40:29;4.13;;;2.30;;
64061;SDS011;50308;47.438;-1.528;2023-05-01T13:42:59;5.50;;;2.47;;
64061;SDS011;50308;47.438;-1.528;2023-05-01T13:45:27;6.72;;;2.58;;
64061;SDS011;50308;47.438;-1.528;2023-05-01T13:47:55;5.90;;;2.22;;
64061;SDS011;50308;47.438;-1.528;2023-05-01T13:52:57;7.40;;;3.08;;
64061;SDS011;50308;47.438;-1.528;2023-05-01T13:55:23;4.72;;;2.22;;
64061;SDS011;50308;47.438;-1.528;2023-05-01T13:57:49;5.38;;;2.90;;
64061;SDS011;50308;47.438;-1.528;2023-05-01T14:00:15;5.53;;;2.50;;
64061;SDS011;50308;47.438;-1.528;2023-05-01T14:02:45;5.00;;;2.63;;
64061;SDS011;50308;47.438;-1.528;2023-05-01T14:05:17;4.60;;;2.50;;
64061;SDS011;50308;47.438;-1.528;2023-05-01T14:07:54;4.40;;;2.35;;
64061;SDS011;50308;47.438;-1.528;2023-05-01T14:10:22;5.35;;;2.38;;
64061;SDS011;50308;47.438;-1.528;2023-05-01T14:12:58;10.63;;;2.75;;
64061;SDS011;50308;47.438;-1.528;2023-05-01T14:15:25;6.55;;;2.05;;
64061;SDS011;50308;47.438;-1.528;2023-05-01T14:17:52;5.22;;;2.50;;
64061;SDS011;50308;47.438;-1.528;2023-05-01T14:20:18;6.47;;;2.50;;
64061;SDS011;50308;47.438;-1.528;2023-05-01T14:22:47;6.50;;;2.45;;
64061;SDS011;50308;47.438;-1.528;2023-05-01T14:27:46;5.05;;;2.45;;
64061;SDS011;50308;47.438;-1.528;2023-05-01T14:30:18;9.10;;;2.60;;
64061;SDS011;50308;47.438;-1.528;2023-05-01T14:33:02;6.38;;;2.53;;
64061;SDS011;50308;47.438;-1.528;2023-05-01T14:35:32;8.48;;;2.13;;
64061;SDS011;50308;47.438;-1.528;2023-05-01T14:38:19;6.40;;;2.50;;
64061;SDS011;50308;47.438;-1.528;2023-05-01T14:40:47;6.53;;;2.53;;
64061;SDS011;50308;47.438;-1.528;2023-05-01T14:43:17;7.78;;;2.15;;
64061;SDS011;50308;47.438;-1.528;2023-05-01T14:45:48;5.95;;;2.40;;
64061;SDS011;50308;47.438;-1.528;2023-05-01T14:48:20;9.35;;;2.70;;
64061;SDS011;50308;47.438;-1.528;2023-05-01T14:50:49;5.88;;;2.70;;
64061;SDS011;50308;47.438;-1.528;2023-05-01T14:53:19;4.60;;;2.50;;
64061;SDS011;50308;47.438;-1.528;2023-05-01T14:55:51;3.78;;;2.58;;
64061;SDS011;50308;47.438;-1.528;2023-05-01T14:58:21;7.18;;;2.05;;
64061;SDS011;50308;47.438;-1.528;2023-05-01T15:00:50;7.25;;;2.42;;
64061;SDS011;50308;47.438;-1.528;2023-05-01T15:03:17;7.32;;;2.55;;
64061;SDS011;50308;47.438;-1.528;2023-05-01T15:05:43;7.65;;;3.17;;
64061;SDS011;50308;47.438;-1.528;2023-05-01T15:08:10;7.22;;;3.13;;
64061;SDS011;50308;47.438;-1.528;2023-05-01T15:10:36;5.18;;;3.33;;
64061;SDS011;50308;47.438;-1.528;2023-05-01T15:13:07;7.43;;;3.30;;
64061;SDS011;50308;47.438;-1.528;2023-05-01T15:15:34;7.05;;;3.10;;
64061;SDS011;50308;47.438;-1.528;2023-05-01T15:18:00;6.93;;;3.03;;
64061;SDS011;50308;47.438;-1.528;2023-05-01T15:20:28;6.07;;;3.22;;
64061;SDS011;50308;47.438;-1.528;2023-05-01T15:22:56;9.68;;;3.10;;
64061;SDS011;50308;47.438;-1.528;2023-05-01T15:25:23;6.80;;;2.95;;
64061;SDS011;50308;47.438;-1.528;2023-05-01T15:27:50;6.47;;;3.38;;
64061;SDS011;50308;47.438;-1.528;2023-05-01T15:30:17;4.07;;;2.45;;
64061;SDS011;50308;47.438;-1.528;2023-05-01T15:32:45;5.72;;;2.72;;
64061;SDS011;50308;47.438;-1.528;2023-05-01T15:35:12;7.75;;;3.08;;
64061;SDS011;50308;47.438;-1.528;2023-05-01T15:37:40;9.30;;;2.88;;
64061;SDS011;50308;47.438;-1.528;2023-05-01T15:40:07;7.57;;;3.20;;
64061;SDS011;50308;47.438;-1.528;2023-05-01T15:42:34;6.78;;;2.65;;
64061;SDS011;50308;47.438;-1.528;2023-05-01T15:45:01;8.77;;;2.90;;